createdAt,value
2023-03-17T00:01:56.176Z,7.34
2023-03-17T00:04:27.288Z,7.46
2023-03-17T00:06:54.412Z,7.41
2023-03-17T00:09:22.084Z,7.46
2023-03-17T00:11:49.314Z,7.48
2023-03-17T00:14:16.624Z,7.41
2023-03-17T00:16:48.348Z,7.26
2023-03-17T00:19:17.967Z,7.34
2023-03-17T00:21:47.091Z,7.46
2023-03-17T00:24:15.750Z,7.38
2023-03-17T00:26:43.245Z,7.32
2023-03-17T00:29:10.202Z,7.37
2023-03-17T00:31:39.389Z,7.35
2023-03-17T00:34:06.508Z,7.31
2023-03-17T00:36:34.433Z,7.24
2023-03-17T00:39:01.398Z,7.25
2023-03-17T00:41:29.418Z,7.12
2023-03-17T00:43:56.077Z,7.16
2023-03-17T00:46:28.858Z,7.12
2023-03-17T00:48:55.550Z,7.07
2023-03-17T00:51:23.441Z,7.01
2023-03-17T00:53:50.356Z,6.99
2023-03-17T00:56:18.210Z,6.79
2023-03-17T00:58:46.135Z,6.51
2023-03-17T01:01:13.237Z,6.29
2023-03-17T01:03:40.600Z,6.33
2023-03-17T01:06:11.917Z,6.26
2023-03-17T01:08:40.581Z,6.29
2023-03-17T01:11:07.326Z,6.42
2023-03-17T01:13:34.263Z,6.60
2023-03-17T01:16:01.114Z,6.55
2023-03-17T01:18:27.621Z,6.40
2023-03-17T01:20:54.595Z,6.36
2023-03-17T01:23:22.029Z,6.36
2023-03-17T01:25:49.103Z,6.53
2023-03-17T01:28:18.496Z,6.52
2023-03-17T01:30:45.922Z,6.49
2023-03-17T01:33:13.100Z,6.51
2023-03-17T01:35:40.326Z,6.52
2023-03-17T01:38:08.242Z,6.53
2023-03-17T01:40:38.832Z,6.59
2023-03-17T01:43:08.461Z,6.59
2023-03-17T01:46:06.580Z,6.41
2023-03-17T01:48:48.705Z,6.23
2023-03-17T01:51:22.115Z,6.38
2023-03-17T01:53:51.026Z,6.34
2023-03-17T01:56:18.068Z,6.23
2023-03-17T01:58:47.025Z,6.31
2023-03-17T02:01:14.092Z,6.10
2023-03-17T02:03:42.067Z,5.78
2023-03-17T02:06:09.496Z,5.70
2023-03-17T02:08:36.345Z,5.57
2023-03-17T02:11:05.029Z,5.50
2023-03-17T02:13:32.885Z,5.57
2023-03-17T02:15:59.348Z,5.48
2023-03-17T02:18:26.356Z,5.74
2023-03-17T02:21:31.392Z,5.49
2023-03-17T02:24:01.112Z,5.38
2023-03-17T02:26:31.549Z,5.34
2023-03-17T02:28:58.105Z,5.14
2023-03-17T02:31:26.686Z,5.12
2023-03-17T02:33:54.039Z,5.04
2023-03-17T02:36:21.971Z,4.99
2023-03-17T02:38:48.806Z,4.96
2023-03-17T02:41:15.584Z,5.01
2023-03-17T02:43:42.903Z,5.12
2023-03-17T02:46:09.762Z,5.04
2023-03-17T02:48:38.102Z,4.97
2023-03-17T02:51:04.957Z,4.89
2023-03-17T02:53:32.108Z,4.98
2023-03-17T02:55:59.127Z,4.90
2023-03-17T02:58:25.603Z,4.73
2023-03-17T03:00:51.998Z,4.71
2023-03-17T03:03:18.565Z,4.62
2023-03-17T03:05:45.411Z,4.58
2023-03-17T03:08:12.224Z,4.52
2023-03-17T03:10:39.075Z,4.47
2023-03-17T03:13:05.944Z,4.54
2023-03-17T03:15:32.715Z,4.43
2023-03-17T03:17:59.321Z,4.31
2023-03-17T03:20:25.858Z,4.38
2023-03-17T03:22:52.525Z,4.30
2023-03-17T03:25:19.189Z,4.13
2023-03-17T03:27:45.771Z,3.94
2023-03-17T03:30:12.458Z,3.87
2023-03-17T03:32:40.740Z,3.85
2023-03-17T03:35:08.687Z,4.05
2023-03-17T03:37:35.591Z,4.14
2023-03-17T03:40:03.079Z,4.22
2023-03-17T03:42:30.598Z,4.31
2023-03-17T03:44:57.089Z,4.25
2023-03-17T03:47:23.552Z,4.16
2023-03-17T03:49:50.229Z,4.12
2023-03-17T03:52:17.072Z,4.02
2023-03-17T03:54:43.773Z,4.01
2023-03-17T03:57:10.656Z,3.99
2023-03-17T03:59:37.107Z,3.98
2023-03-17T04:02:03.679Z,3.84
2023-03-17T04:04:30.327Z,3.97
2023-03-17T04:06:56.844Z,3.88
2023-03-17T04:09:23.366Z,3.92
2023-03-17T04:11:50.182Z,3.99
2023-03-17T04:14:16.911Z,3.87
2023-03-17T04:16:43.799Z,3.80
2023-03-17T04:19:11.048Z,3.70
2023-03-17T04:21:37.769Z,3.76
2023-03-17T04:24:07.841Z,3.57
2023-03-17T04:26:34.735Z,3.82
2023-03-17T04:29:01.362Z,3.98
2023-03-17T04:31:27.804Z,4.02
2023-03-17T04:33:54.378Z,3.87
2023-03-17T04:36:23.795Z,3.68
2023-03-17T04:38:50.410Z,3.61
2023-03-17T04:41:17.279Z,3.54
2023-03-17T04:43:43.814Z,3.54
2023-03-17T04:46:10.931Z,3.67
2023-03-17T04:48:37.644Z,3.55
2023-03-17T04:51:04.305Z,3.47
2023-03-17T04:53:30.791Z,3.49
2023-03-17T04:55:57.404Z,3.45
2023-03-17T04:58:30.685Z,3.63
2023-03-17T05:00:58.442Z,3.68
2023-03-17T05:03:27.599Z,3.62
2023-03-17T05:05:54.474Z,3.57
2023-03-17T05:08:21.032Z,3.65
2023-03-17T05:10:47.631Z,3.72
2023-03-17T05:13:14.366Z,3.90
2023-03-17T05:15:41.124Z,4.01
2023-03-17T05:18:08.272Z,4.38
2023-03-17T05:20:34.783Z,4.48
2023-03-17T05:23:01.324Z,4.23
2023-03-17T05:25:27.928Z,4.00
2023-03-17T05:27:54.924Z,4.09
2023-03-17T05:30:21.306Z,4.05
2023-03-17T05:32:48.286Z,4.01
2023-03-17T05:35:14.976Z,4.00
2023-03-17T05:37:41.710Z,4.00
2023-03-17T05:40:09.096Z,4.10
2023-03-17T05:42:36.436Z,4.11
2023-03-17T05:45:05.157Z,4.06
2023-03-17T05:47:33.368Z,4.12
2023-03-17T05:50:01.048Z,4.08
2023-03-17T05:52:28.578Z,4.16
2023-03-17T05:54:55.334Z,4.21
2023-03-17T05:57:22.137Z,4.39
2023-03-17T05:59:50.683Z,4.38
2023-03-17T06:02:17.408Z,4.47
2023-03-17T06:04:43.835Z,4.60
2023-03-17T06:07:12.032Z,4.82
2023-03-17T06:09:38.870Z,4.75
2023-03-17T06:12:06.755Z,4.87
2023-03-17T06:14:33.313Z,5.04
2023-03-17T06:16:59.886Z,5.20
2023-03-17T06:19:26.563Z,5.43
2023-03-17T06:21:53.170Z,5.51
2023-03-17T06:24:20.065Z,5.63
2023-03-17T06:26:46.743Z,6.11
2023-03-17T06:29:13.759Z,6.18
2023-03-17T06:31:40.676Z,6.37
2023-03-17T06:34:07.471Z,6.46
2023-03-17T06:36:34.116Z,6.63
2023-03-17T06:39:01.144Z,6.68
2023-03-17T06:41:27.933Z,6.79
2023-03-17T06:43:54.401Z,7.03
2023-03-17T06:46:20.984Z,7.04
2023-03-17T06:48:47.782Z,7.09
2023-03-17T06:51:14.168Z,7.12
2023-03-17T06:53:41.037Z,7.35
2023-03-17T06:56:12.573Z,7.52
2023-03-17T06:58:43.813Z,7.67
2023-03-17T07:01:10.324Z,7.73
2023-03-17T07:03:38.190Z,7.86
2023-03-17T07:06:05.300Z,7.96
2023-03-17T07:08:31.968Z,8.19
2023-03-17T07:10:58.891Z,8.33
2023-03-17T07:13:27.387Z,8.33
2023-03-17T07:15:55.466Z,8.53
2023-03-17T07:18:22.206Z,8.55
2023-03-17T07:20:48.826Z,8.60
2023-03-17T07:23:20.408Z,8.67
2023-03-17T07:25:47.435Z,8.79
2023-03-17T07:28:15.678Z,8.87
2023-03-17T07:30:46.786Z,8.92
2023-03-17T07:33:14.009Z,8.96
2023-03-17T07:35:41.501Z,9.10
2023-03-17T07:38:07.983Z,9.06
2023-03-17T07:40:35.524Z,9.08
2023-03-17T07:43:02.568Z,9.18
2023-03-17T07:45:29.574Z,9.33
2023-03-17T07:47:56.293Z,9.44
2023-03-17T07:50:23.151Z,9.52
2023-03-17T07:52:49.670Z,9.54
2023-03-17T07:55:16.487Z,9.73
2023-03-17T07:57:43.373Z,9.85
2023-03-17T08:00:10.832Z,9.94
2023-03-17T08:02:38.329Z,9.97
2023-03-17T08:05:06.549Z,9.94
2023-03-17T08:07:34.016Z,9.98
2023-03-17T08:10:00.521Z,10.12
2023-03-17T08:12:27.082Z,10.02
2023-03-17T08:14:53.699Z,10.19
2023-03-17T08:17:20.985Z,10.20
2023-03-17T08:19:47.451Z,10.20
2023-03-17T08:22:14.618Z,10.36
2023-03-17T08:24:43.007Z,10.69
2023-03-17T08:27:10.004Z,11.45
2023-03-17T08:29:36.366Z,11.44
2023-03-17T08:32:03.585Z,11.89
2023-03-17T08:34:30.136Z,12.03
2023-03-17T08:36:57.318Z,11.76
2023-03-17T08:39:24.381Z,11.18
2023-03-17T08:41:50.996Z,11.08
2023-03-17T08:44:17.650Z,11.26
2023-03-17T08:46:44.464Z,10.81
2023-03-17T08:49:12.433Z,10.85
2023-03-17T08:51:40.142Z,11.01
2023-03-17T08:54:07.626Z,11.15
2023-03-17T08:56:34.857Z,11.32
2023-03-17T08:59:01.925Z,11.51
2023-03-17T09:01:28.737Z,11.21
2023-03-17T09:03:55.849Z,11.33
2023-03-17T09:06:23.209Z,11.36
2023-03-17T09:08:55.105Z,11.30
2023-03-17T09:11:24.804Z,11.70
2023-03-17T09:13:51.687Z,11.61
2023-03-17T09:16:18.711Z,11.58
2023-03-17T09:18:46.429Z,11.79
2023-03-17T09:21:14.899Z,12.05
2023-03-17T09:23:42.131Z,12.24
2023-03-17T09:26:10.119Z,12.10
2023-03-17T09:28:37.308Z,12.43
2023-03-17T09:31:07.629Z,12.16
2023-03-17T09:33:34.562Z,12.09
2023-03-17T09:36:01.492Z,12.39
2023-03-17T09:38:28.279Z,12.63
2023-03-17T09:41:09.793Z,12.38
2023-03-17T09:43:49.521Z,12.42
2023-03-17T09:46:42.868Z,12.46
2023-03-17T09:49:14.289Z,12.69
2023-03-17T09:51:43.036Z,12.88
2023-03-17T09:54:26.178Z,13.01
2023-03-17T09:57:06.868Z,13.52
2023-03-17T09:59:38.068Z,13.51
2023-03-17T10:02:30.066Z,13.95
2023-03-17T10:04:57.958Z,14.34
2023-03-17T10:07:42.039Z,15.27
2023-03-17T10:10:17.007Z,16.12
2023-03-17T10:13:03.149Z,15.23
2023-03-17T10:15:41.136Z,15.21
2023-03-17T10:18:17.372Z,15.36
2023-03-17T10:21:16.188Z,16.68
2023-03-17T10:23:43.269Z,17.33
2023-03-17T10:26:33.713Z,17.74
2023-03-17T10:29:04.358Z,16.49
2023-03-17T10:31:35.229Z,17.59
2023-03-17T10:34:13.491Z,16.65
2023-03-17T10:36:44.396Z,16.45
2023-03-17T10:39:15.252Z,15.71
2023-03-17T10:41:53.365Z,15.65
2023-03-17T10:44:48.409Z,15.61
2023-03-17T10:47:32.105Z,15.69
2023-03-17T10:50:32.524Z,15.60
2023-03-17T10:53:05.986Z,16.13
2023-03-17T10:55:39.759Z,16.38
2023-03-17T10:58:13.910Z,16.51
2023-03-17T11:00:54.093Z,15.77
2023-03-17T11:03:31.126Z,16.16
2023-03-17T11:06:01.619Z,16.27
2023-03-17T11:08:40.304Z,15.74
2023-03-17T11:11:29.614Z,15.52
2023-03-17T11:14:11.621Z,15.81
2023-03-17T11:16:47.543Z,15.30
2023-03-17T11:19:18.435Z,15.11
2023-03-17T11:22:04.868Z,15.62
2023-03-17T11:24:36.262Z,15.93
2023-03-17T11:27:15.723Z,15.58
2023-03-17T11:30:10.767Z,15.86
2023-03-17T11:32:44.414Z,15.97
2023-03-17T11:35:36.847Z,15.54
2023-03-17T11:38:24.860Z,15.61
2023-03-17T11:40:54.172Z,16.10
2023-03-17T11:43:27.771Z,15.90
2023-03-17T11:46:05.237Z,16.29
2023-03-17T11:48:56.400Z,16.44
2023-03-17T11:51:36.025Z,16.23
2023-03-17T11:54:29.605Z,15.76
2023-03-17T11:57:01.892Z,16.34
2023-03-17T11:59:52.121Z,16.28
2023-03-17T12:03:00.536Z,16.02
2023-03-17T12:05:29.861Z,15.73
2023-03-17T12:08:04.425Z,16.11
2023-03-17T12:10:37.791Z,15.67
2023-03-17T12:13:20.425Z,16.91
2023-03-17T12:16:04.090Z,17.06
2023-03-17T12:18:46.805Z,16.99
2023-03-17T12:21:37.176Z,17.30
2023-03-17T12:24:13.070Z,16.98
2023-03-17T12:26:50.690Z,15.97
2023-03-17T12:29:53.956Z,15.80
2023-03-17T12:32:47.824Z,15.97
2023-03-17T12:35:31.940Z,16.21
2023-03-17T12:38:01.160Z,15.90
2023-03-17T12:40:55.201Z,15.62
2023-03-17T12:43:28.368Z,15.62
2023-03-17T12:46:36.875Z,15.99
2023-03-17T12:49:24.251Z,16.11
2023-03-17T12:52:06.114Z,15.58
2023-03-17T12:54:36.592Z,15.50
2023-03-17T12:57:20.226Z,15.63
2023-03-17T12:59:49.698Z,15.80
2023-03-17T13:02:23.086Z,16.18
2023-03-17T13:05:00.957Z,15.98
2023-03-17T13:07:38.693Z,15.67
2023-03-17T13:10:43.858Z,15.58
2023-03-17T13:13:23.309Z,15.73
2023-03-17T13:15:55.304Z,15.57
2023-03-17T13:18:29.395Z,15.86
2023-03-17T13:20:56.208Z,16.06
2023-03-17T13:23:43.903Z,15.82
2023-03-17T13:26:18.827Z,15.58
2023-03-17T13:28:48.081Z,15.27
2023-03-17T13:31:27.055Z,15.19
2023-03-17T13:33:58.853Z,15.17
2023-03-17T13:36:25.425Z,15.20
2023-03-17T13:39:18.216Z,15.18
2023-03-17T13:42:18.059Z,15.18
2023-03-17T13:45:07.125Z,15.08
2023-03-17T13:47:42.176Z,14.98
2023-03-17T13:50:14.526Z,15.18
2023-03-17T13:52:53.318Z,14.87
2023-03-17T13:55:20.415Z,14.97
2023-03-17T13:58:11.990Z,14.95
2023-03-17T14:00:48.902Z,14.98
2023-03-17T14:03:49.062Z,15.24
2023-03-17T14:06:19.231Z,15.12
2023-03-17T14:08:50.919Z,15.34
2023-03-17T14:11:17.973Z,15.06
2023-03-17T14:13:56.041Z,14.86
2023-03-17T14:16:29.672Z,14.88
2023-03-17T14:19:08.069Z,14.86
2023-03-17T14:21:34.514Z,14.80
2023-03-17T14:24:04.394Z,14.65
2023-03-17T14:26:32.297Z,14.69
2023-03-17T14:29:00.469Z,14.68
2023-03-17T14:31:28.633Z,14.47
2023-03-17T14:34:00.393Z,14.53
2023-03-17T14:36:32.192Z,14.50
2023-03-17T14:38:58.662Z,14.53
2023-03-17T14:41:28.807Z,14.54
2023-03-17T14:44:00.063Z,14.47
2023-03-17T14:46:33.952Z,14.58
2023-03-17T14:49:09.570Z,14.49
2023-03-17T14:51:39.581Z,14.59
2023-03-17T14:54:19.483Z,14.73
2023-03-17T14:57:02.052Z,14.58
2023-03-17T14:59:37.864Z,14.39
2023-03-17T15:02:21.614Z,14.42
2023-03-17T15:04:59.652Z,14.40
2023-03-17T15:07:42.470Z,14.14
2023-03-17T15:10:21.405Z,14.03
2023-03-17T15:12:48.380Z,14.01
2023-03-17T15:15:23.178Z,13.87
2023-03-17T15:17:56.688Z,13.80
2023-03-17T15:20:23.748Z,13.73
2023-03-17T16:08:25.152Z,12.36
2023-03-17T16:10:52.193Z,12.46
2023-03-17T16:13:19.200Z,12.52
2023-03-17T16:15:58.463Z,12.40
2023-03-17T16:18:33.130Z,12.57
2023-03-17T16:21:00.868Z,12.85
2023-03-17T16:23:31.455Z,12.83
2023-03-17T16:26:11.720Z,12.84
2023-03-17T16:28:42.123Z,12.86
2023-03-17T16:31:41.316Z,12.78
2023-03-17T16:34:21.079Z,12.87
2023-03-17T16:36:48.424Z,13.09
2023-03-17T16:39:22.798Z,12.95
2023-03-17T16:41:50.293Z,12.85
2023-03-17T16:44:19.274Z,12.68
2023-03-17T16:46:46.164Z,12.74
2023-03-17T16:49:15.928Z,12.62
2023-03-17T16:51:43.043Z,12.58
2023-03-17T16:54:09.996Z,12.46
2023-03-17T16:56:41.169Z,12.34
2023-03-17T16:59:18.550Z,12.23
2023-03-17T17:01:45.204Z,12.17
2023-03-17T17:04:11.715Z,12.12
2023-03-17T17:06:38.364Z,12.01
2023-03-17T17:09:04.977Z,11.94
2023-03-17T17:11:31.453Z,11.93
2023-03-17T17:13:59.765Z,11.81
2023-03-17T17:16:31.824Z,11.81
2023-03-17T17:18:59.582Z,11.86
2023-03-17T17:21:26.437Z,11.80
2023-03-17T17:23:53.859Z,11.89
2023-03-17T17:26:21.131Z,11.68
2023-03-17T17:28:48.345Z,11.83
2023-03-17T17:31:15.360Z,11.85
2023-03-17T17:33:42.466Z,11.85
2023-03-17T17:36:14.608Z,12.19
2023-03-17T17:38:41.346Z,12.31
2023-03-17T17:41:10.623Z,11.99
2023-03-17T17:43:38.066Z,12.10
2023-03-17T17:46:10.860Z,12.03
2023-03-17T17:48:37.321Z,11.79
2023-03-17T17:51:03.891Z,11.60
2023-03-17T17:53:30.835Z,11.70
2023-03-17T17:55:57.712Z,11.68
2023-03-17T17:58:25.592Z,12.29
2023-03-17T18:00:55.222Z,12.18
2023-03-17T18:03:32.551Z,12.18
2023-03-17T18:05:59.385Z,11.89
2023-03-17T18:08:26.781Z,11.81
2023-03-17T18:10:53.239Z,11.64
2023-03-17T18:13:20.424Z,11.61
2023-03-17T18:15:47.262Z,11.58
2023-03-17T18:18:15.142Z,11.46
2023-03-17T18:20:47.271Z,11.52
2023-03-17T18:23:15.973Z,11.55
2023-03-17T18:25:42.415Z,11.47
2023-03-17T18:28:08.797Z,11.41
2023-03-17T18:30:35.740Z,11.30
2023-03-17T18:33:13.676Z,11.32
2023-03-17T18:35:41.425Z,11.33
2023-03-17T18:38:08.616Z,11.41
2023-03-17T18:40:35.675Z,11.37
2023-03-17T18:43:02.483Z,11.23
2023-03-17T18:45:29.036Z,11.25
2023-03-17T18:47:55.708Z,11.21
2023-03-17T18:50:22.537Z,11.31
2023-03-17T18:52:50.598Z,11.31
2023-03-17T18:55:17.949Z,11.26
2023-03-17T18:57:45.630Z,11.20
2023-03-17T19:00:16.286Z,11.11
2023-03-17T19:02:43.422Z,10.94
2023-03-17T19:05:10.544Z,10.85
2023-03-17T19:07:40.181Z,10.65
2023-03-17T19:10:09.677Z,10.60
2023-03-17T19:12:37.191Z,10.58
2023-03-17T19:15:06.175Z,10.45
2023-03-17T19:17:34.105Z,10.44
2023-03-17T19:20:01.178Z,10.40
2023-03-17T19:22:27.859Z,10.30
2023-03-17T19:24:54.742Z,10.15
2023-03-17T19:27:21.297Z,10.15
2023-03-17T19:29:47.879Z,10.02
2023-03-17T19:32:14.534Z,10.03
2023-03-17T19:34:41.302Z,10.02
2023-03-17T19:37:07.724Z,9.97
2023-03-17T19:39:34.306Z,9.97
2023-03-17T19:42:01.545Z,9.97
2023-03-17T19:44:28.373Z,9.83
2023-03-17T19:46:54.819Z,9.68
2023-03-17T19:49:22.363Z,9.64
2023-03-17T19:51:49.628Z,9.63
2023-03-17T19:54:18.544Z,9.74
2023-03-17T19:56:45.665Z,9.72
2023-03-17T19:59:12.335Z,9.73
2023-03-17T20:01:39.732Z,9.81
2023-03-17T20:04:08.819Z,9.93
2023-03-17T20:06:35.340Z,9.84
2023-03-17T20:09:07.720Z,9.72
2023-03-17T20:11:34.457Z,9.71
2023-03-17T20:14:02.188Z,9.71
2023-03-17T20:16:31.892Z,9.96
2023-03-17T20:18:58.330Z,9.79
2023-03-17T20:21:24.902Z,9.63
2023-03-17T20:23:52.514Z,9.61
2023-03-17T20:26:19.934Z,9.58
2023-03-17T20:28:46.945Z,9.60
2023-03-17T20:31:13.732Z,9.55
2023-03-17T20:33:40.208Z,9.55
2023-03-17T20:36:07.842Z,9.58
2023-03-17T20:38:36.830Z,9.47
2023-03-17T20:41:14.989Z,9.52
2023-03-17T20:43:41.968Z,9.44
2023-03-17T20:46:13.649Z,9.49
2023-03-17T20:48:41.210Z,9.50
2023-03-17T20:51:10.063Z,9.55
2023-03-17T20:53:37.479Z,9.42
2023-03-17T20:56:04.849Z,9.40
2023-03-17T20:58:31.604Z,9.40
2023-03-17T21:00:58.489Z,9.44
2023-03-17T21:03:25.446Z,9.42
2023-03-17T21:05:53.348Z,9.39
2023-03-17T21:08:20.119Z,9.38
2023-03-17T21:10:46.545Z,9.31
2023-03-17T21:13:13.378Z,9.44
2023-03-17T21:15:41.021Z,9.36
2023-03-17T21:18:07.439Z,9.32
2023-03-17T21:20:34.068Z,9.23
2023-03-17T21:23:03.304Z,9.15
2023-03-17T21:25:31.058Z,9.08
2023-03-17T21:27:57.802Z,9.04
2023-03-17T21:30:24.328Z,9.42
2023-03-17T21:32:51.227Z,9.15
2023-03-17T21:35:18.059Z,9.13
2023-03-17T21:37:45.241Z,9.06
2023-03-17T21:40:13.366Z,8.94
2023-03-17T21:42:40.620Z,9.05
2023-03-17T21:45:08.131Z,9.03
2023-03-17T21:47:36.216Z,8.94
2023-03-17T21:50:05.048Z,8.87
2023-03-17T21:52:32.675Z,8.91
2023-03-17T21:54:59.570Z,8.88
2023-03-17T21:57:27.686Z,8.88
2023-03-17T21:59:54.314Z,8.99
2023-03-17T22:02:20.799Z,8.87
2023-03-17T22:04:48.600Z,8.81
2023-03-17T22:07:19.446Z,8.93
2023-03-17T22:09:46.042Z,9.00
2023-03-17T22:12:12.613Z,9.07
2023-03-17T22:14:39.387Z,9.05
2023-03-17T22:17:05.889Z,9.02
2023-03-17T22:19:32.349Z,8.83
2023-03-17T22:21:59.090Z,8.80
2023-03-17T22:24:25.894Z,8.84
2023-03-17T22:26:52.534Z,8.85
2023-03-17T22:29:19.858Z,8.76
2023-03-17T22:31:46.778Z,8.88
2023-03-17T22:34:13.798Z,8.90
2023-03-17T22:36:40.698Z,8.99
2023-03-17T22:39:10.364Z,8.83
2023-03-17T22:41:38.365Z,8.86
2023-03-17T22:44:08.095Z,9.00
2023-03-17T22:46:36.486Z,8.83
2023-03-17T22:49:03.859Z,8.75
2023-03-17T22:51:30.605Z,8.79
2023-03-17T22:53:57.392Z,8.72
2023-03-17T22:56:23.929Z,8.77
2023-03-17T22:58:51.064Z,8.78
2023-03-17T23:01:18.413Z,8.74
2023-03-17T23:03:45.884Z,8.81
2023-03-17T23:06:13.157Z,8.89
2023-03-17T23:08:42.676Z,8.99
2023-03-17T23:11:13.779Z,8.67
2023-03-17T23:13:41.400Z,8.70
2023-03-17T23:16:09.050Z,8.74
2023-03-17T23:18:36.058Z,8.65
2023-03-17T23:21:03.659Z,8.61
2023-03-17T23:23:30.290Z,8.57
2023-03-17T23:25:57.350Z,8.66
2023-03-17T23:28:24.031Z,8.80
2023-03-17T23:30:51.486Z,8.94
2023-03-17T23:33:21.482Z,9.19
2023-03-17T23:35:50.427Z,9.25
2023-03-17T23:38:21.255Z,9.15
2023-03-17T23:40:48.658Z,9.20
2023-03-17T23:43:16.066Z,9.30
2023-03-17T23:45:42.730Z,9.32
2023-03-17T23:48:10.380Z,9.27
2023-03-17T23:50:39.263Z,9.27
2023-03-17T23:53:06.053Z,9.47
2023-03-17T23:55:32.492Z,9.44
2023-03-17T23:57:58.872Z,9.42
